Hlavní strana
METAR-TAF:

METAR-TAF

Letiště :

Kittilä, Finsko

zeměpisná šířka: 67-42N, zeměpisná délka: 024-51E, výška: 196 m

Aktuální stav počasí

Zpráva byla vytvořena před 28 minutami, v 16:20 UTC
vítr z různých směrů 2 kt
Teplota -5°C
Vlhkost vzduchu 86%
Tlak 964 hPa
Viditelnost 10 km a více
Žádná oblačnost pod 1500 m, nevyskytují se cumulonimby.

METAR: EFKT 231620Z VRB02KT CAVOK M05/M07 Q0964

Čas: 18:48 (16:48 UTC)

Předpověď počasí

Zpráva byla vytvořena před 2 hodinami a 22 minutami, v 14:26 UTC
Předpověď platná od 23 v 15 UTC do 23 v 22 UTC
Západojihozápadní vítr 6 kt
Viditelnost 10 km a více
Žádná oblačnost pod 1500 m, nevyskytují se cumulonimby.

TAF: EFKT 231426Z 2315/2322 24006KT CAVOK

Stav a předpovědi počasí z více než 4 000 letišť (zprávy METAR a TAF).

Červené a žluté tečky na mapě představují dostupné meteorologické stanice.

Když kurzor umístíte na tečku, zobrazí se název stanice.

Pak kliknutím zobrazíte stav a předpověď počasí.

Chcete-li změnit mapu, kliknutím na zelené tlačítko se znaménkem +mapu přiblížíte, kliknutím na zelené tlačítko se znaménkem – mapu oddálíte a kliknutím na zelené šipky přejdete na sousední mapy.


METAR-TAF: